sensor_id;sensor_type;location;lat;lon;timestamp;pressure;altitude;pressure_sealevel;temperature;humidity
12868;BME280;33517;49.866;8.320;2023-05-02T00:01:46;100610.00;;;12.01;84.34
12868;BME280;33517;49.866;8.320;2023-05-02T00:04:38;100607.19;;;11.95;84.07
12868;BME280;33517;49.866;8.320;2023-05-02T00:07:31;100607.03;;;11.88;84.98
12868;BME280;33517;49.866;8.320;2023-05-02T00:10:22;100607.06;;;11.80;84.59
12868;BME280;33517;49.866;8.320;2023-05-02T00:13:14;100601.63;;;11.74;85.69
12868;BME280;33517;49.866;8.320;2023-05-02T00:16:06;100598.53;;;11.70;85.17
12868;BME280;33517;49.866;8.320;2023-05-02T00:18:59;100596.38;;;11.66;85.51
12868;BME280;33517;49.866;8.320;2023-05-02T00:21:51;100592.75;;;11.59;85.56
12868;BME280;33517;49.866;8.320;2023-05-02T00:24:43;100599.50;;;11.53;85.01
12868;BME280;33517;49.866;8.320;2023-05-02T00:27:35;100601.97;;;11.47;85.41
12868;BME280;33517;49.866;8.320;2023-05-02T00:30:27;100598.19;;;11.41;85.62
12868;BME280;33517;49.866;8.320;2023-05-02T00:33:19;100596.69;;;11.39;86.08
12868;BME280;33517;49.866;8.320;2023-05-02T00:36:17;100604.78;;;11.37;86.17
12868;BME280;33517;49.866;8.320;2023-05-02T00:39:09;100598.19;;;11.33;87.17
12868;BME280;33517;49.866;8.320;2023-05-02T00:42:01;100598.19;;;11.33;87.08
12868;BME280;33517;49.866;8.320;2023-05-02T00:44:54;100609.91;;;11.31;87.07
12868;BME280;33517;49.866;8.320;2023-05-02T00:47:45;100611.22;;;11.27;87.54
12868;BME280;33517;49.866;8.320;2023-05-02T00:50:39;100613.19;;;11.25;87.23
12868;BME280;33517;49.866;8.320;2023-05-02T00:53:32;100614.03;;;11.25;87.61
12868;BME280;33517;49.866;8.320;2023-05-02T00:56:24;100608.41;;;11.20;87.45
12868;BME280;33517;49.866;8.320;2023-05-02T00:59:16;100614.50;;;11.21;87.42
12868;BME280;33517;49.866;8.320;2023-05-02T01:02:24;100620.91;;;11.18;87.20
12868;BME280;33517;49.866;8.320;2023-05-02T01:05:25;100624.53;;;11.17;87.43
12868;BME280;33517;49.866;8.320;2023-05-02T01:08:24;100614.50;;;11.12;87.28
12868;BME280;33517;49.866;8.320;2023-05-02T01:11:28;100617.63;;;11.08;87.35
12868;BME280;33517;49.866;8.320;2023-05-02T01:14:22;100618.28;;;11.02;87.70
12868;BME280;33517;49.866;8.320;2023-05-02T01:17:18;100623.84;;;10.99;87.59
12868;BME280;33517;49.866;8.320;2023-05-02T01:20:13;100627.78;;;10.95;87.75
12868;BME280;33517;49.866;8.320;2023-05-02T01:23:11;100623.69;;;10.92;87.85
12868;BME280;33517;49.866;8.320;2023-05-02T01:26:13;100637.16;;;10.89;88.16
12868;BME280;33517;49.866;8.320;2023-05-02T01:29:08;100629.59;;;10.86;88.31
12868;BME280;33517;49.866;8.320;2023-05-02T01:32:03;100632.88;;;10.80;88.71
12868;BME280;33517;49.866;8.320;2023-05-02T01:34:57;100632.03;;;10.80;89.01
12868;BME280;33517;49.866;8.320;2023-05-02T01:37:51;100637.00;;;10.83;88.88
12868;BME280;33517;49.866;8.320;2023-05-02T01:40:44;100650.31;;;10.81;88.58
12868;BME280;33517;49.866;8.320;2023-05-02T01:43:38;100647.84;;;10.80;88.54
12868;BME280;33517;49.866;8.320;2023-05-02T01:46:33;100652.44;;;10.78;88.28
12868;BME280;33517;49.866;8.320;2023-05-02T01:49:28;100659.66;;;10.76;88.52
12868;BME280;33517;49.866;8.320;2023-05-02T01:52:22;100655.03;;;10.70;87.86
12868;BME280;33517;49.866;8.320;2023-05-02T01:55:16;100655.84;;;10.62;88.80
12868;BME280;33517;49.866;8.320;2023-05-02T01:58:09;100665.06;;;10.58;88.70
12868;BME280;33517;49.866;8.320;2023-05-02T02:01:02;100667.66;;;10.50;88.49
12868;BME280;33517;49.866;8.320;2023-05-02T02:03:57;100678.97;;;10.43;88.61
12868;BME280;33517;49.866;8.320;2023-05-02T02:06:51;100677.25;;;10.34;88.57
12868;BME280;33517;49.866;8.320;2023-05-02T02:09:44;100673.59;;;10.27;88.20
12868;BME280;33517;49.866;8.320;2023-05-02T02:12:40;100680.50;;;10.19;88.61
12868;BME280;33517;49.866;8.320;2023-05-02T02:15:33;100676.97;;;10.11;88.60
12868;BME280;33517;49.866;8.320;2023-05-02T02:18:26;100678.53;;;10.04;89.14
12868;BME280;33517;49.866;8.320;2023-05-02T02:21:22;100691.47;;;9.97;89.20
12868;BME280;33517;49.866;8.320;2023-05-02T02:24:15;100703.44;;;9.92;89.53
12868;BME280;33517;49.866;8.320;2023-05-02T02:27:09;100704.03;;;9.86;89.48
12868;BME280;33517;49.866;8.320;2023-05-02T02:30:01;100713.06;;;9.83;89.51
12868;BME280;33517;49.866;8.320;2023-05-02T02:32:54;100708.28;;;9.79;89.86
12868;BME280;33517;49.866;8.320;2023-05-02T02:35:49;100704.28;;;9.75;90.61
12868;BME280;33517;49.866;8.320;2023-05-02T02:38:49;100707.06;;;9.73;90.58
12868;BME280;33517;49.866;8.320;2023-05-02T02:41:54;100704.09;;;9.68;90.81
12868;BME280;33517;49.866;8.320;2023-05-02T02:44:55;100710.75;;;9.63;90.65
12868;BME280;33517;49.866;8.320;2023-05-02T02:48:00;100709.13;;;9.62;90.42
12868;BME280;33517;49.866;8.320;2023-05-02T02:50:58;100710.66;;;9.72;90.84
12868;BME280;33517;49.866;8.320;2023-05-02T02:54:00;100710.66;;;9.90;91.25
12868;BME280;33517;49.866;8.320;2023-05-02T02:57:00;100715.81;;;9.99;91.41
12868;BME280;33517;49.866;8.320;2023-05-02T03:00:00;100715.50;;;10.02;90.86
12868;BME280;33517;49.866;8.320;2023-05-02T03:02:54;100721.28;;;10.06;90.91
12868;BME280;33517;49.866;8.320;2023-05-02T03:05:47;100718.16;;;10.02;90.63
12868;BME280;33517;49.866;8.320;2023-05-02T03:08:40;100717.47;;;10.00;91.31
12868;BME280;33517;49.866;8.320;2023-05-02T03:11:33;100737.00;;;9.98;91.11
12868;BME280;33517;49.866;8.320;2023-05-02T03:14:25;100734.97;;;9.92;91.18
12868;BME280;33517;49.866;8.320;2023-05-02T03:17:17;100744.81;;;9.90;91.81
12868;BME280;33517;49.866;8.320;2023-05-02T03:20:09;100749.91;;;9.91;92.37
12868;BME280;33517;49.866;8.320;2023-05-02T03:23:01;100755.66;;;9.87;92.99
12868;BME280;33517;49.866;8.320;2023-05-02T03:25:53;100762.63;;;9.78;92.74
12868;BME280;33517;49.866;8.320;2023-05-02T03:28:46;100749.56;;;9.69;92.22
12868;BME280;33517;49.866;8.320;2023-05-02T03:31:38;100769.38;;;9.63;92.55
12868;BME280;33517;49.866;8.320;2023-05-02T03:34:30;100763.63;;;9.60;92.12
12868;BME280;33517;49.866;8.320;2023-05-02T03:37:22;100772.50;;;9.59;92.12
12868;BME280;33517;49.866;8.320;2023-05-02T03:40:14;100777.59;;;9.60;94.23
12868;BME280;33517;49.866;8.320;2023-05-02T03:43:06;100776.44;;;9.63;92.83
12868;BME280;33517;49.866;8.320;2023-05-02T03:46:03;100774.22;;;9.68;94.48
12868;BME280;33517;49.866;8.320;2023-05-02T03:48:56;100786.94;;;9.80;94.56
12868;BME280;33517;49.866;8.320;2023-05-02T03:51:48;100780.81;;;9.89;94.95
12868;BME280;33517;49.866;8.320;2023-05-02T03:54:40;100784.16;;;9.99;95.33
12868;BME280;33517;49.866;8.320;2023-05-02T03:57:33;100787.97;;;10.05;95.00
12868;BME280;33517;49.866;8.320;2023-05-02T04:00:25;100793.66;;;10.10;94.29
12868;BME280;33517;49.866;8.320;2023-05-02T04:03:18;100790.88;;;10.11;94.67
12868;BME280;33517;49.866;8.320;2023-05-02T04:06:10;100786.69;;;10.09;93.87
12868;BME280;33517;49.866;8.320;2023-05-02T04:09:02;100790.31;;;10.08;94.36
12868;BME280;33517;49.866;8.320;2023-05-02T04:11:54;100791.75;;;10.02;94.60
12868;BME280;33517;49.866;8.320;2023-05-02T04:14:46;100788.97;;;10.04;95.04
12868;BME280;33517;49.866;8.320;2023-05-02T04:17:38;100805.44;;;10.06;94.56
12868;BME280;33517;49.866;8.320;2023-05-02T04:20:31;100808.22;;;10.04;94.85
12868;BME280;33517;49.866;8.320;2023-05-02T04:23:23;100820.88;;;10.09;94.53
12868;BME280;33517;49.866;8.320;2023-05-02T04:26:15;100815.88;;;10.15;94.65
12868;BME280;33517;49.866;8.320;2023-05-02T04:29:07;100826.75;;;10.20;94.75
12868;BME280;33517;49.866;8.320;2023-05-02T04:31:59;100828.94;;;10.25;93.64
12868;BME280;33517;49.866;8.320;2023-05-02T04:34:50;100835.25;;;10.32;93.27
12868;BME280;33517;49.866;8.320;2023-05-02T04:37:44;100845.16;;;10.38;92.71
12868;BME280;33517;49.866;8.320;2023-05-02T04:40:35;100855.34;;;10.41;92.61
12868;BME280;33517;49.866;8.320;2023-05-02T04:43:27;100851.94;;;10.41;93.38
12868;BME280;33517;49.866;8.320;2023-05-02T04:46:19;100849.44;;;10.39;92.63
12868;BME280;33517;49.866;8.320;2023-05-02T04:49:11;100863.81;;;10.27;94.02
12868;BME280;33517;49.866;8.320;2023-05-02T04:52:03;100873.94;;;10.22;95.32
12868;BME280;33517;49.866;8.320;2023-05-02T04:54:57;100873.84;;;10.32;94.85
12868;BME280;33517;49.866;8.320;2023-05-02T04:57:49;100881.66;;;10.41;94.68
12868;BME280;33517;49.866;8.320;2023-05-02T05:00:42;100874.84;;;10.48;94.83
12868;BME280;33517;49.866;8.320;2023-05-02T05:03:34;100881.94;;;10.73;93.82
12868;BME280;33517;49.866;8.320;2023-05-02T05:06:26;100893.31;;;10.82;93.01
12868;BME280;33517;49.866;8.320;2023-05-02T05:09:18;100894.41;;;10.71;93.67
12868;BME280;33517;49.866;8.320;2023-05-02T05:12:11;100894.00;;;10.58;94.35
12868;BME280;33517;49.866;8.320;2023-05-02T05:15:03;100903.00;;;10.73;94.25
12868;BME280;33517;49.866;8.320;2023-05-02T05:17:56;100907.56;;;10.71;94.62
12868;BME280;33517;49.866;8.320;2023-05-02T05:20:48;100905.03;;;10.87;94.11
12868;BME280;33517;49.866;8.320;2023-05-02T05:23:40;100907.31;;;11.08;93.49
12868;BME280;33517;49.866;8.320;2023-05-02T05:26:35;100908.28;;;11.33;92.59
12868;BME280;33517;49.866;8.320;2023-05-02T05:29:31;100913.28;;;11.52;91.69
12868;BME280;33517;49.866;8.320;2023-05-02T05:32:23;100921.44;;;11.66;90.20
12868;BME280;33517;49.866;8.320;2023-05-02T05:35:15;100916.00;;;11.68;90.31
12868;BME280;33517;49.866;8.320;2023-05-02T05:38:07;100927.72;;;11.73;89.47
12868;BME280;33517;49.866;8.320;2023-05-02T05:40:59;100933.53;;;11.77;89.13
12868;BME280;33517;49.866;8.320;2023-05-02T05:43:51;100933.84;;;11.82;88.42
12868;BME280;33517;49.866;8.320;2023-05-02T05:46:44;100928.44;;;11.91;88.90
12868;BME280;33517;49.866;8.320;2023-05-02T05:49:36;100936.06;;;12.02;88.40
12868;BME280;33517;49.866;8.320;2023-05-02T05:52:28;100938.91;;;12.17;87.60
12868;BME280;33517;49.866;8.320;2023-05-02T05:55:20;100940.41;;;12.36;87.31
12868;BME280;33517;49.866;8.320;2023-05-02T05:58:12;100941.56;;;12.49;87.87
12868;BME280;33517;49.866;8.320;2023-05-02T06:01:04;100946.69;;;12.59;88.13
12868;BME280;33517;49.866;8.320;2023-05-02T06:03:57;100935.31;;;12.66;88.26
12868;BME280;33517;49.866;8.320;2023-05-02T06:06:49;100944.03;;;12.91;87.46
12868;BME280;33517;49.866;8.320;2023-05-02T06:09:43;100955.41;;;13.16;86.96
12868;BME280;33517;49.866;8.320;2023-05-02T06:12:34;100956.91;;;13.18;87.33
12868;BME280;33517;49.866;8.320;2023-05-02T06:15:26;100951.78;;;13.17;87.26
12868;BME280;33517;49.866;8.320;2023-05-02T06:18:18;100956.06;;;13.26;87.07
12868;BME280;33517;49.866;8.320;2023-05-02T06:21:11;100954.69;;;13.38;86.94
12868;BME280;33517;49.866;8.320;2023-05-02T06:24:04;100957.13;;;13.47;86.66
12868;BME280;33517;49.866;8.320;2023-05-02T06:26:57;100965.38;;;13.60;85.77
12868;BME280;33517;49.866;8.320;2023-05-02T06:29:50;100972.28;;;13.69;85.56
12868;BME280;33517;49.866;8.320;2023-05-02T06:32:42;100974.75;;;13.71;85.81
12868;BME280;33517;49.866;8.320;2023-05-02T06:35:34;100983.00;;;14.07;85.20
12868;BME280;33517;49.866;8.320;2023-05-02T06:38:27;100989.78;;;14.40;83.73
12868;BME280;33517;49.866;8.320;2023-05-02T06:41:19;100994.09;;;14.63;82.05
12868;BME280;33517;49.866;8.320;2023-05-02T06:44:11;100994.31;;;15.51;80.06
12868;BME280;33517;49.866;8.320;2023-05-02T06:47:03;100984.38;;;18.91;69.35
12868;BME280;33517;49.866;8.320;2023-05-02T06:49:55;100987.84;;;21.08;61.96
12868;BME280;33517;49.866;8.320;2023-05-02T06:52:47;101001.78;;;20.23;61.76
12868;BME280;33517;49.866;8.320;2023-05-02T06:55:40;100992.53;;;21.37;58.85
12868;BME280;33517;49.866;8.320;2023-05-02T06:58:32;101000.94;;;23.37;54.54
12868;BME280;33517;49.866;8.320;2023-05-02T07:01:24;101001.47;;;23.27;53.89
12868;BME280;33517;49.866;8.320;2023-05-02T07:04:16;101008.19;;;21.94;52.87
12868;BME280;33517;49.866;8.320;2023-05-02T07:07:08;101019.22;;;20.63;57.79
12868;BME280;33517;49.866;8.320;2023-05-02T07:09:59;101021.75;;;19.44;59.08
12868;BME280;33517;49.866;8.320;2023-05-02T07:12:53;101019.88;;;18.66;61.38
12868;BME280;33517;49.866;8.320;2023-05-02T07:15:44;101024.72;;;18.49;62.96
12868;BME280;33517;49.866;8.320;2023-05-02T07:18:37;101022.53;;;18.66;62.47
12868;BME280;33517;49.866;8.320;2023-05-02T07:21:29;101023.31;;;18.53;62.63
12868;BME280;33517;49.866;8.320;2023-05-02T07:24:22;101024.16;;;18.13;63.14
12868;BME280;33517;49.866;8.320;2023-05-02T07:27:13;101033.06;;;17.86;64.95
12868;BME280;33517;49.866;8.320;2023-05-02T07:30:07;101028.59;;;17.31;65.41
12868;BME280;33517;49.866;8.320;2023-05-02T07:32:59;101038.28;;;17.11;66.40
12868;BME280;33517;49.866;8.320;2023-05-02T07:35:51;101038.41;;;16.82;66.55
12868;BME280;33517;49.866;8.320;2023-05-02T07:38:43;101044.47;;;16.76;67.67
12868;BME280;33517;49.866;8.320;2023-05-02T07:41:35;101038.78;;;16.79;67.45
12868;BME280;33517;49.866;8.320;2023-05-02T07:44:27;101038.00;;;16.85;67.11
12868;BME280;33517;49.866;8.320;2023-05-02T07:47:20;101046.00;;;16.85;66.47
12868;BME280;33517;49.866;8.320;2023-05-02T07:50:12;101046.69;;;16.93;66.80
12868;BME280;33517;49.866;8.320;2023-05-02T07:53:04;101046.09;;;16.98;66.59
12868;BME280;33517;49.866;8.320;2023-05-02T07:55:55;101037.25;;;17.12;66.59
12868;BME280;33517;49.866;8.320;2023-05-02T07:58:47;101050.47;;;17.05;66.49
12868;BME280;33517;49.866;8.320;2023-05-02T08:01:41;101057.00;;;17.03;66.18
12868;BME280;33517;49.866;8.320;2023-05-02T08:04:35;101061.09;;;17.05;66.25
12868;BME280;33517;49.866;8.320;2023-05-02T08:07:27;101057.78;;;17.24;64.81
12868;BME280;33517;49.866;8.320;2023-05-02T08:10:19;101062.13;;;17.25;65.22
12868;BME280;33517;49.866;8.320;2023-05-02T08:13:11;101061.22;;;17.67;64.06
12868;BME280;33517;49.866;8.320;2023-05-02T08:16:03;101069.88;;;18.51;61.82
12868;BME280;33517;49.866;8.320;2023-05-02T08:18:56;101062.56;;;19.64;57.95
12868;BME280;33517;49.866;8.320;2023-05-02T08:21:49;101069.75;;;19.76;58.42
12868;BME280;33517;49.866;8.320;2023-05-02T08:24:41;101073.84;;;19.07;58.70
12868;BME280;33517;49.866;8.320;2023-05-02T08:27:33;101081.03;;;18.33;60.54
12868;BME280;33517;49.866;8.320;2023-05-02T08:30:25;101088.94;;;17.79;61.15
12868;BME280;33517;49.866;8.320;2023-05-02T08:33:17;101079.00;;;17.39;61.52
12868;BME280;33517;49.866;8.320;2023-05-02T08:36:10;101086.78;;;16.92;62.09
12868;BME280;33517;49.866;8.320;2023-05-02T08:39:03;101090.75;;;16.81;63.01
12868;BME280;33517;49.866;8.320;2023-05-02T08:41:57;101103.66;;;16.63;63.22
12868;BME280;33517;49.866;8.320;2023-05-02T08:44:49;101104.44;;;16.64;63.65
12868;BME280;33517;49.866;8.320;2023-05-02T08:47:42;101098.25;;;16.56;64.02
12868;BME280;33517;49.866;8.320;2023-05-02T08:50:36;101100.03;;;16.71;63.88
12868;BME280;33517;49.866;8.320;2023-05-02T08:53:29;101106.13;;;16.86;63.60
12868;BME280;33517;49.866;8.320;2023-05-02T08:56:24;101097.25;;;17.21;62.85
12868;BME280;33517;49.866;8.320;2023-05-02T08:59:16;101107.50;;;17.45;62.25
12868;BME280;33517;49.866;8.320;2023-05-02T09:02:11;101118.28;;;17.16;61.91
12868;BME280;33517;49.866;8.320;2023-05-02T09:05:10;101129.44;;;17.05;62.33
12868;BME280;33517;49.866;8.320;2023-05-02T09:08:02;101136.56;;;16.83;61.91
12868;BME280;33517;49.866;8.320;2023-05-02T09:10:54;101126.13;;;17.45;61.29
12868;BME280;33517;49.866;8.320;2023-05-02T09:13:48;101128.13;;;18.19;58.37
12868;BME280;33517;49.866;8.320;2023-05-02T09:16:41;101135.56;;;18.03;59.74
12868;BME280;33517;49.866;8.320;2023-05-02T09:19:33;101136.88;;;18.13;57.96
12868;BME280;33517;49.866;8.320;2023-05-02T09:22:25;101143.06;;;18.55;57.50
12868;BME280;33517;49.866;8.320;2023-05-02T09:25:17;101144.22;;;18.39;56.65
12868;BME280;33517;49.866;8.320;2023-05-02T09:28:09;101146.22;;;18.71;56.97
12868;BME280;33517;49.866;8.320;2023-05-02T09:31:07;101149.41;;;20.12;54.50
12868;BME280;33517;49.866;8.320;2023-05-02T09:34:07;101144.34;;;21.37;52.55
12868;BME280;33517;49.866;8.320;2023-05-02T09:37:00;101152.59;;;26.56;43.74
12868;BME280;33517;49.866;8.320;2023-05-02T09:40:04;101159.63;;;25.97;42.06
12868;BME280;33517;49.866;8.320;2023-05-02T09:42:56;101164.19;;;26.13;40.62
12868;BME280;33517;49.866;8.320;2023-05-02T09:45:55;101160.38;;;25.76;41.11
12868;BME280;33517;49.866;8.320;2023-05-02T09:48:53;101165.50;;;27.87;37.60
12868;BME280;33517;49.866;8.320;2023-05-02T09:51:45;101168.44;;;27.17;38.51
12868;BME280;33517;49.866;8.320;2023-05-02T09:54:37;101168.72;;;25.74;41.12
12868;BME280;33517;49.866;8.320;2023-05-02T09:57:38;101166.38;;;24.25;42.77
12868;BME280;33517;49.866;8.320;2023-05-02T10:00:38;101167.72;;;27.26;38.09
12868;BME280;33517;49.866;8.320;2023-05-02T10:03:30;101179.19;;;29.81;35.53
12868;BME280;33517;49.866;8.320;2023-05-02T10:06:23;101167.41;;;27.23;36.95
12868;BME280;33517;49.866;8.320;2023-05-02T10:09:18;101159.28;;;30.26;34.38
12868;BME280;33517;49.866;8.320;2023-05-02T10:12:13;101167.53;;;31.86;30.99
12868;BME280;33517;49.866;8.320;2023-05-02T10:15:08;101161.31;;;32.56;28.78
12868;BME280;33517;49.866;8.320;2023-05-02T10:18:06;101167.38;;;33.65;28.47
12868;BME280;33517;49.866;8.320;2023-05-02T10:21:04;101164.63;;;33.46;28.70
12868;BME280;33517;49.866;8.320;2023-05-02T10:24:00;101159.53;;;33.58;27.53
12868;BME280;33517;49.866;8.320;2023-05-02T10:26:53;101164.50;;;34.15;27.03
12868;BME280;33517;49.866;8.320;2023-05-02T10:29:46;101167.81;;;32.79;27.59
12868;BME280;33517;49.866;8.320;2023-05-02T10:32:38;101158.97;;;32.87;27.64
12868;BME280;33517;49.866;8.320;2023-05-02T10:35:31;101172.00;;;32.52;28.34
12868;BME280;33517;49.866;8.320;2023-05-02T10:38:23;101170.16;;;33.09;25.71
12868;BME280;33517;49.866;8.320;2023-05-02T10:41:19;101168.09;;;33.52;25.28
12868;BME280;33517;49.866;8.320;2023-05-02T10:44:12;101166.63;;;34.59;25.51
12868;BME280;33517;49.866;8.320;2023-05-02T10:47:17;101155.13;;;34.49;24.18
12868;BME280;33517;49.866;8.320;2023-05-02T10:50:09;101164.78;;;34.68;25.40
12868;BME280;33517;49.866;8.320;2023-05-02T10:53:21;101160.75;;;35.59;24.06
12868;BME280;33517;49.866;8.320;2023-05-02T10:56:18;101163.25;;;35.47;24.03
12868;BME280;33517;49.866;8.320;2023-05-02T10:59:28;101151.03;;;35.09;24.01
12868;BME280;33517;49.866;8.320;2023-05-02T11:02:47;101152.16;;;36.14;22.40
12868;BME280;33517;49.866;8.320;2023-05-02T11:06:04;101149.72;;;35.51;24.33
12868;BME280;33517;49.866;8.320;2023-05-02T11:09:31;101150.28;;;32.66;26.27
12868;BME280;33517;49.866;8.320;2023-05-02T11:12:44;101146.59;;;30.70;27.33
12868;BME280;33517;49.866;8.320;2023-05-02T11:16:04;101147.19;;;31.78;26.51
12868;BME280;33517;49.866;8.320;2023-05-02T11:18:59;101143.34;;;28.37;29.25
12868;BME280;33517;49.866;8.320;2023-05-02T11:21:51;101142.06;;;31.43;28.22
12868;BME280;33517;49.866;8.320;2023-05-02T11:24:44;101134.22;;;32.46;25.87
12868;BME280;33517;49.866;8.320;2023-05-02T11:27:37;101136.50;;;32.10;26.68
12868;BME280;33517;49.866;8.320;2023-05-02T11:30:38;101142.50;;;34.75;24.92
12868;BME280;33517;49.866;8.320;2023-05-02T11:33:31;101138.84;;;35.15;22.70
12868;BME280;33517;49.866;8.320;2023-05-02T11:36:29;101138.50;;;34.94;23.83
12868;BME280;33517;49.866;8.320;2023-05-02T11:39:22;101133.78;;;32.76;25.44
12868;BME280;33517;49.866;8.320;2023-05-02T11:42:27;101124.34;;;33.57;23.61
12868;BME280;33517;49.866;8.320;2023-05-02T11:45:19;101118.59;;;32.04;25.55
12868;BME280;33517;49.866;8.320;2023-05-02T11:48:16;101126.91;;;33.80;24.04
12868;BME280;33517;49.866;8.320;2023-05-02T11:51:08;101129.13;;;33.78;24.76
12868;BME280;33517;49.866;8.320;2023-05-02T11:54:00;101128.63;;;33.63;24.84
12868;BME280;33517;49.866;8.320;2023-05-02T11:56:53;101123.63;;;33.97;24.60
12868;BME280;33517;49.866;8.320;2023-05-02T11:59:48;101118.53;;;35.16;24.40
12868;BME280;33517;49.866;8.320;2023-05-02T12:02:42;101109.56;;;36.72;23.16
12868;BME280;33517;49.866;8.320;2023-05-02T12:05:35;101119.97;;;35.88;22.86
12868;BME280;33517;49.866;8.320;2023-05-02T12:08:27;101113.47;;;33.84;24.56
12868;BME280;33517;49.866;8.320;2023-05-02T12:11:19;101111.56;;;33.98;24.02
12868;BME280;33517;49.866;8.320;2023-05-02T12:14:11;101115.91;;;34.53;24.05
12868;BME280;33517;49.866;8.320;2023-05-02T12:17:03;101108.81;;;34.52;23.60
12868;BME280;33517;49.866;8.320;2023-05-02T12:19:56;101115.00;;;34.30;23.40
12868;BME280;33517;49.866;8.320;2023-05-02T12:22:50;101110.66;;;34.16;24.18
12868;BME280;33517;49.866;8.320;2023-05-02T12:25:42;101120.72;;;31.55;25.75
12868;BME280;33517;49.866;8.320;2023-05-02T12:28:47;101120.16;;;28.56;28.07
12868;BME280;33517;49.866;8.320;2023-05-02T12:31:38;101115.00;;;25.89;31.03
12868;BME280;33517;49.866;8.320;2023-05-02T12:34:31;101142.38;;;24.87;32.29
12868;BME280;33517;49.866;8.320;2023-05-02T12:37:24;101143.69;;;23.87;33.82
12868;BME280;33517;49.866;8.320;2023-05-02T12:40:17;101153.16;;;21.93;38.99
12868;BME280;33517;49.866;8.320;2023-05-02T12:43:09;101162.69;;;20.51;44.56
12868;BME280;33517;49.866;8.320;2023-05-02T12:46:11;101175.47;;;19.18;49.31
12868;BME280;33517;49.866;8.320;2023-05-02T12:49:04;101174.66;;;18.23;52.98
12868;BME280;33517;49.866;8.320;2023-05-02T12:51:57;101180.91;;;18.09;55.84
12868;BME280;33517;49.866;8.320;2023-05-02T12:54:49;101174.00;;;17.87;56.29
12868;BME280;33517;49.866;8.320;2023-05-02T12:57:43;101176.47;;;17.89;55.53
12868;BME280;33517;49.866;8.320;2023-05-02T13:00:36;101181.47;;;18.05;54.43
12868;BME280;33517;49.866;8.320;2023-05-02T13:03:28;101182.81;;;18.15;54.76
12868;BME280;33517;49.866;8.320;2023-05-02T13:06:20;101164.13;;;18.43;54.22
12868;BME280;33517;49.866;8.320;2023-05-02T13:09:12;101166.50;;;18.72;53.18
12868;BME280;33517;49.866;8.320;2023-05-02T13:12:04;101163.53;;;19.01;52.65
12868;BME280;33517;49.866;8.320;2023-05-02T13:14:57;101161.16;;;19.39;51.26
12868;BME280;33517;49.866;8.320;2023-05-02T13:17:49;101168.75;;;19.81;51.26
12868;BME280;33517;49.866;8.320;2023-05-02T13:20:41;101167.91;;;20.13;50.71
12868;BME280;33517;49.866;8.320;2023-05-02T13:23:33;101167.84;;;20.53;50.48
12868;BME280;33517;49.866;8.320;2023-05-02T13:26:25;101161.94;;;20.82;50.70
12868;BME280;33517;49.866;8.320;2023-05-02T13:29:17;101164.81;;;20.80;50.51
12868;BME280;33517;49.866;8.320;2023-05-02T13:32:10;101157.75;;;21.30;49.65
12868;BME280;33517;49.866;8.320;2023-05-02T13:35:03;101154.19;;;21.43;48.87
12868;BME280;33517;49.866;8.320;2023-05-02T13:37:55;101154.06;;;21.56;47.43
12868;BME280;33517;49.866;8.320;2023-05-02T13:40:47;101155.53;;;22.01;47.36
12868;BME280;33517;49.866;8.320;2023-05-02T13:43:38;101152.22;;;22.42;46.22
12868;BME280;33517;49.866;8.320;2023-05-02T13:46:30;101154.94;;;22.89;45.14
12868;BME280;33517;49.866;8.320;2023-05-02T13:49:27;101153.91;;;22.72;44.52
12868;BME280;33517;49.866;8.320;2023-05-02T13:52:19;101146.63;;;22.61;44.96
12868;BME280;33517;49.866;8.320;2023-05-02T13:55:11;101154.94;;;22.89;44.94
12868;BME280;33517;49.866;8.320;2023-05-02T13:58:03;101150.78;;;23.05;44.77
12868;BME280;33517;49.866;8.320;2023-05-02T14:00:55;101153.41;;;23.12;45.54
12868;BME280;33517;49.866;8.320;2023-05-02T14:03:47;101143.56;;;23.06;44.66
12868;BME280;33517;49.866;8.320;2023-05-02T14:06:40;101142.31;;;22.42;44.06
12868;BME280;33517;49.866;8.320;2023-05-02T14:09:32;101143.94;;;22.43;45.42
12868;BME280;33517;49.866;8.320;2023-05-02T14:12:24;101142.41;;;22.83;43.54
12868;BME280;33517;49.866;8.320;2023-05-02T14:15:16;101146.09;;;23.01;42.84
12868;BME280;33517;49.866;8.320;2023-05-02T14:18:08;101142.53;;;22.59;41.81
12868;BME280;33517;49.866;8.320;2023-05-02T14:21:00;101147.28;;;22.75;43.54
12868;BME280;33517;49.866;8.320;2023-05-02T14:23:54;101141.41;;;22.48;41.70
12868;BME280;33517;49.866;8.320;2023-05-02T14:26:46;101147.28;;;22.21;41.03
12868;BME280;33517;49.866;8.320;2023-05-02T14:29:38;101142.13;;;22.01;41.90
12868;BME280;33517;49.866;8.320;2023-05-02T14:32:30;101141.25;;;21.89;41.62
12868;BME280;33517;49.866;8.320;2023-05-02T14:35:22;101141.88;;;21.60;41.75
12868;BME280;33517;49.866;8.320;2023-05-02T14:38:14;101141.53;;;21.25;42.71
12868;BME280;33517;49.866;8.320;2023-05-02T14:41:08;101145.59;;;20.96;44.56
12868;BME280;33517;49.866;8.320;2023-05-02T14:44:00;101159.69;;;20.79;45.43
12868;BME280;33517;49.866;8.320;2023-05-02T14:46:53;101160.31;;;20.24;46.38
12868;BME280;33517;49.866;8.320;2023-05-02T14:49:46;101157.47;;;19.86;47.39
12868;BME280;33517;49.866;8.320;2023-05-02T14:52:38;101161.59;;;19.49;48.11
12868;BME280;33517;49.866;8.320;2023-05-02T14:55:34;101163.13;;;19.11;48.57
12868;BME280;33517;49.866;8.320;2023-05-02T14:58:28;101158.78;;;18.90;48.64
12868;BME280;33517;49.866;8.320;2023-05-02T15:01:21;101161.28;;;19.05;47.82
12868;BME280;33517;49.866;8.320;2023-05-02T15:04:13;101164.19;;;19.23;47.71
12868;BME280;33517;49.866;8.320;2023-05-02T15:07:04;101162.94;;;19.12;47.27
12868;BME280;33517;49.866;8.320;2023-05-02T15:09:56;101167.16;;;18.87;47.48